KASX

Details ICAO KASX
Name JOHN F KENNEDY MEM
Region United States
Timezone America/Chicago (UTC-6.0)
Plans Departing 5
Arriving 27
Stats Elevation 826 ft / 252 m (AMSL)
Location 46.548844° -90.918492°
Runways 2
Magnetic Variation 1.981° W
Sunrise 2017-12-10 13:38:24 UTC / 2017-12-10 07:38:24 Local
Sunset 2017-12-10 22:17:42 UTC / 2017-12-10 16:17:42 Local
Advertisement - Login to hide

Runways

ID Width Length Bearing (true) Bearing (mag) Surface Threshold Offset Overrun Length
02 100 ft / 30 m 5,200 ft / 1,585 m 20.73° 22.71° Asphalt 0 ft / 0 m 0 ft / 0 m
13 75 ft / 23 m 3,493 ft / 1,065 m 130.61° 132.59° Asphalt 0 ft / 0 m 0 ft / 0 m
20 100 ft / 30 m 5,200 ft / 1,585 m 200.73° 202.71° Asphalt 0 ft / 0 m 0 ft / 0 m
31 75 ft / 23 m 3,493 ft / 1,065 m 310.61° 312.59° Asphalt 0 ft / 0 m 0 ft / 0 m

Map

Weather


0- 5 10 15 20 25 30 35+ Temperature / ° C

Clouds and Precipitation
Forecast for 2017-12-11 06:00 UTC. Updated an hour ago

Ground ~20,000 ft ~40,000 ft Winds

METAR

KASX 110153Z AUTO 18004KT 10SM CLR M14/M16 A3002 RMK AO2 SLP186 I1000 T11391156

TAF

Not found

Frequencies

Recorded 126.77 MHz ASOS
Approach 126.45 MHz MINNEAPOLIS APP/DEP
Unicom 122.80 MHz CTAF/UNICOM
Warning: Do not use this data for real-world aviation or navigation. No guarantee of current accuracy is given.